createdAt,value
2018-01-13T00:00:14.531Z,3.10
2018-01-13T00:02:42.147Z,3.10
2018-01-13T00:05:09.750Z,3.10
2018-01-13T00:07:37.335Z,3.10
2018-01-13T00:10:04.946Z,3.00
2018-01-13T00:12:33.411Z,3.10
2018-01-13T00:15:00.995Z,3.10
2018-01-13T00:17:29.451Z,3.10
2018-01-13T00:19:57.106Z,3.10
2018-01-13T00:22:24.784Z,3.10
2018-01-13T00:24:52.439Z,3.10
2018-01-13T00:27:20.047Z,3.20
2018-01-13T00:29:47.631Z,3.20
2018-01-13T00:32:15.239Z,3.20
2018-01-13T00:34:43.590Z,3.20
2018-01-13T00:37:11.199Z,3.20
2018-01-13T00:39:39.555Z,3.20
2018-01-13T00:42:07.163Z,3.20
2018-01-13T00:44:34.750Z,3.20
2018-01-13T00:47:02.430Z,3.20
2018-01-13T00:49:30.008Z,3.20
2018-01-13T00:51:58.450Z,3.10
2018-01-13T00:54:26.047Z,3.10
2018-01-13T00:56:54.407Z,3.10
2018-01-13T00:59:22.014Z,3.10
2018-01-13T01:01:49.603Z,3.10
2018-01-13T01:04:17.214Z,3.10
2018-01-13T01:06:45.567Z,3.10
2018-01-13T01:09:13.174Z,3.10
2018-01-13T01:11:40.794Z,3.10
2018-01-13T01:14:08.403Z,3.10
2018-01-13T01:16:36.002Z,3.20
2018-01-13T01:19:03.799Z,3.20
2018-01-13T01:21:31.450Z,3.20
2018-01-13T01:23:59.111Z,3.30
2018-01-13T01:26:26.690Z,3.30
2018-01-13T01:28:55.155Z,3.40
2018-01-13T01:31:22.819Z,3.30
2018-01-13T01:33:50.433Z,3.30
2018-01-13T01:36:18.015Z,3.30
2018-01-13T01:38:45.627Z,3.30
2018-01-13T01:41:13.978Z,3.30
2018-01-13T01:43:41.587Z,3.30
2018-01-13T01:46:09.207Z,3.30
2018-01-13T01:48:36.848Z,3.40
2018-01-13T01:51:04.535Z,3.30
2018-01-13T01:53:32.122Z,3.30
2018-01-13T01:56:00.498Z,3.30
2018-01-13T01:58:28.856Z,3.30
2018-01-13T02:00:56.474Z,3.30
2018-01-13T02:03:24.076Z,3.30
2018-01-13T02:05:51.683Z,3.30
2018-01-13T02:08:19.263Z,3.30
2018-01-13T02:10:46.871Z,3.20
2018-01-13T02:13:14.519Z,3.20
2018-01-13T02:15:42.122Z,3.20
2018-01-13T02:18:09.743Z,3.20
2018-01-13T02:20:37.400Z,3.10
2018-01-13T02:23:05.066Z,3.10
2018-01-13T02:25:34.175Z,3.20
2018-01-13T02:28:01.760Z,3.20
2018-01-13T02:30:30.207Z,3.20
2018-01-13T02:32:57.871Z,3.20
2018-01-13T02:35:25.453Z,3.20
2018-01-13T02:37:53.823Z,3.20
2018-01-13T02:40:21.407Z,3.10
2018-01-13T02:42:49.015Z,3.20
2018-01-13T02:45:16.695Z,3.20
2018-01-13T02:47:44.359Z,3.20
2018-01-13T02:50:11.952Z,3.10
2018-01-13T02:52:40.335Z,3.00
2018-01-13T02:55:07.963Z,3.00
2018-01-13T02:57:35.628Z,3.00
2018-01-13T03:00:03.225Z,3.00
2018-01-13T03:02:30.846Z,2.90
2018-01-13T03:04:58.503Z,2.80
2018-01-13T03:07:26.183Z,2.80
2018-01-13T03:09:53.839Z,2.80
2018-01-13T03:12:21.457Z,2.80
2018-01-13T03:14:49.042Z,2.70
2018-01-13T03:17:16.723Z,2.70
2018-01-13T03:19:44.388Z,2.80
2018-01-13T03:22:12.047Z,2.80
2018-01-13T03:24:39.710Z,2.80
2018-01-13T03:27:07.376Z,2.80
2018-01-13T03:29:34.983Z,2.80
2018-01-13T03:32:02.699Z,2.80
2018-01-13T03:34:31.100Z,2.80
2018-01-13T03:36:59.562Z,2.80
2018-01-13T03:39:27.227Z,2.70
2018-01-13T03:41:54.892Z,2.70
2018-01-13T03:44:22.546Z,2.70
2018-01-13T03:46:50.130Z,2.70
2018-01-13T03:49:18.600Z,2.70
2018-01-13T03:51:46.182Z,2.70
2018-01-13T03:54:14.567Z,2.70
2018-01-13T03:56:42.152Z,2.60
2018-01-13T03:59:09.772Z,2.60
2018-01-13T04:01:38.124Z,2.70
2018-01-13T04:04:05.730Z,2.60
2018-01-13T04:06:34.184Z,2.70
2018-01-13T04:09:01.774Z,2.60
2018-01-13T04:11:29.399Z,2.60
2018-01-13T04:13:57.064Z,2.60
2018-01-13T04:16:24.723Z,2.60
2018-01-13T04:18:52.434Z,2.70
2018-01-13T04:21:20.054Z,2.70
2018-01-13T04:23:47.649Z,2.70
2018-01-13T04:26:15.275Z,2.70
2018-01-13T04:28:42.920Z,2.70
2018-01-13T04:31:10.540Z,2.70
2018-01-13T04:33:38.127Z,2.70
2018-01-13T04:36:05.832Z,2.70
2018-01-13T04:38:33.487Z,2.70
2018-01-13T04:41:01.146Z,2.70
2018-01-13T04:43:29.536Z,2.70
2018-01-13T04:45:57.142Z,2.70
2018-01-13T04:48:24.724Z,2.70
2018-01-13T04:50:52.422Z,2.60
2018-01-13T04:53:20.040Z,2.60
2018-01-13T04:55:47.655Z,2.70
2018-01-13T04:58:16.128Z,2.70
2018-01-13T05:00:43.719Z,2.70
2018-01-13T05:03:11.323Z,2.70
2018-01-13T05:05:38.920Z,2.70
2018-01-13T05:08:07.392Z,2.70
2018-01-13T05:10:35.056Z,2.70
2018-01-13T05:13:02.711Z,2.60
2018-01-13T05:15:31.065Z,2.70
2018-01-13T05:17:58.684Z,2.60
2018-01-13T05:20:27.036Z,2.70
2018-01-13T05:22:54.655Z,2.70
2018-01-13T05:25:22.255Z,2.70
2018-01-13T05:27:50.630Z,2.60
2018-01-13T05:30:18.303Z,2.70
2018-01-13T05:32:45.958Z,2.70
2018-01-13T05:35:13.565Z,2.70
2018-01-13T05:37:41.182Z,2.70
2018-01-13T05:40:08.807Z,2.70
2018-01-13T05:42:36.406Z,2.70
2018-01-13T05:45:04.023Z,2.70
2018-01-13T05:47:31.635Z,2.60
2018-01-13T05:49:59.274Z,2.70
2018-01-13T05:52:26.955Z,2.70
2018-01-13T05:54:54.619Z,2.70
2018-01-13T05:57:23.008Z,2.70
2018-01-13T05:59:50.715Z,2.70
2018-01-13T06:02:18.287Z,2.70
2018-01-13T06:04:45.992Z,2.70
2018-01-13T06:07:13.656Z,2.70
2018-01-13T06:09:41.269Z,2.70
2018-01-13T06:12:08.975Z,2.70
2018-01-13T06:14:36.586Z,2.80
2018-01-13T06:17:04.171Z,2.90
2018-01-13T06:19:31.860Z,2.90
2018-01-13T06:21:59.523Z,2.90
2018-01-13T06:24:27.109Z,2.90
2018-01-13T06:26:55.479Z,2.90
2018-01-13T06:29:23.134Z,2.90
2018-01-13T06:31:51.616Z,2.80
2018-01-13T06:34:19.202Z,2.80
2018-01-13T06:36:46.940Z,2.80
2018-01-13T06:39:14.641Z,2.80
2018-01-13T06:41:43.008Z,2.80
2018-01-13T06:44:10.632Z,2.80
2018-01-13T06:46:38.243Z,2.80
2018-01-13T06:49:05.860Z,2.80
2018-01-13T06:51:33.535Z,2.80
2018-01-13T06:54:02.011Z,2.80
2018-01-13T06:56:29.618Z,2.80
2018-01-13T06:58:57.211Z,2.80
2018-01-13T07:01:24.807Z,2.80
2018-01-13T07:03:53.270Z,2.70
2018-01-13T07:06:20.859Z,2.70
2018-01-13T07:08:49.324Z,2.80
2018-01-13T07:11:16.910Z,2.80
2018-01-13T07:13:45.364Z,2.80
2018-01-13T07:16:12.959Z,2.80
2018-01-13T07:18:40.567Z,2.80
2018-01-13T07:21:08.160Z,2.90
2018-01-13T07:23:36.623Z,2.80
2018-01-13T07:26:04.287Z,2.80
2018-01-13T07:28:31.955Z,2.90
2018-01-13T07:30:59.552Z,2.90
2018-01-13T07:33:27.283Z,2.90
2018-01-13T07:35:54.934Z,2.80
2018-01-13T07:38:23.288Z,2.80
2018-01-13T07:40:50.896Z,2.80
2018-01-13T07:43:19.368Z,2.80
2018-01-13T07:45:46.984Z,2.80
2018-01-13T07:48:14.576Z,2.90
2018-01-13T07:50:42.243Z,2.90
2018-01-13T07:53:09.862Z,2.80
2018-01-13T07:55:37.471Z,2.90
2018-01-13T07:58:05.131Z,2.90
2018-01-13T08:00:32.738Z,2.90
2018-01-13T08:03:00.359Z,2.90
2018-01-13T08:05:28.734Z,2.90
2018-01-13T08:07:56.400Z,2.90
2018-01-13T08:10:24.059Z,2.90
2018-01-13T08:12:52.414Z,2.90
2018-01-13T08:15:20.113Z,2.90
2018-01-13T08:17:47.764Z,2.80
2018-01-13T08:20:15.429Z,2.80
2018-01-13T08:22:43.039Z,2.70
2018-01-13T08:25:10.652Z,2.70
2018-01-13T08:27:38.324Z,2.70
2018-01-13T08:30:05.907Z,2.60
2018-01-13T08:32:33.528Z,2.60
2018-01-13T08:35:01.211Z,2.60
2018-01-13T08:37:28.871Z,2.60
2018-01-13T08:39:57.226Z,2.50
2018-01-13T08:42:24.838Z,2.50
2018-01-13T08:44:53.289Z,2.50
2018-01-13T08:47:21.724Z,2.50
2018-01-13T08:49:49.336Z,2.50
2018-01-13T08:52:17.041Z,2.50
2018-01-13T08:54:44.612Z,2.50
2018-01-13T08:57:12.315Z,2.50
2018-01-13T08:59:39.911Z,2.50
2018-01-13T09:02:08.283Z,2.50
2018-01-13T09:04:36.631Z,2.50
2018-01-13T09:07:04.299Z,2.50
2018-01-13T09:09:31.959Z,2.50
2018-01-13T09:11:59.547Z,2.50
2018-01-13T09:14:27.928Z,2.50
2018-01-13T09:16:56.392Z,2.50
2018-01-13T09:19:24.047Z,2.50
2018-01-13T09:21:52.399Z,2.50
2018-01-13T09:24:20.012Z,2.50
2018-01-13T09:26:48.368Z,2.50
2018-01-13T09:29:16.748Z,2.50
2018-01-13T09:31:44.333Z,2.50
2018-01-13T09:34:12.787Z,2.60
2018-01-13T09:36:40.380Z,2.60
2018-01-13T09:39:08.768Z,2.60
2018-01-13T09:41:36.400Z,2.60
2018-01-13T09:44:04.055Z,2.50
2018-01-13T09:46:31.738Z,2.50
2018-01-13T09:49:00.108Z,2.60
2018-01-13T09:51:27.759Z,2.60
2018-01-13T09:53:55.353Z,2.60
2018-01-13T09:56:23.808Z,2.60
2018-01-13T09:58:51.733Z,2.50
2018-01-13T10:01:19.440Z,2.50
2018-01-13T10:03:47.104Z,2.50
2018-01-13T10:06:14.763Z,2.50
2018-01-13T10:08:42.423Z,2.50
2018-01-13T10:11:10.036Z,2.60
2018-01-13T10:13:37.652Z,2.60
2018-01-13T10:16:05.259Z,2.60
2018-01-13T10:18:32.852Z,2.60
2018-01-13T10:21:00.462Z,2.60
2018-01-13T10:23:28.819Z,2.60
2018-01-13T10:25:56.477Z,2.60
2018-01-13T10:28:24.136Z,2.60
2018-01-13T10:30:51.737Z,2.60
2018-01-13T10:33:19.359Z,2.50
2018-01-13T10:35:47.023Z,2.50
2018-01-13T10:38:14.637Z,2.60
2018-01-13T10:40:42.247Z,2.60
2018-01-13T10:43:09.851Z,2.70
2018-01-13T10:45:37.439Z,2.70
2018-01-13T10:48:05.127Z,2.70
2018-01-13T10:50:34.124Z,2.70
2018-01-13T10:53:01.787Z,2.80
2018-01-13T10:55:29.362Z,2.80
2018-01-13T10:57:56.968Z,2.80
2018-01-13T11:00:24.580Z,2.70
2018-01-13T11:02:52.300Z,2.80
2018-01-13T11:05:19.912Z,2.80
2018-01-13T11:07:48.275Z,2.80
2018-01-13T11:10:15.884Z,2.80
2018-01-13T11:12:43.462Z,2.70
2018-01-13T11:15:11.824Z,2.80
2018-01-13T11:17:39.406Z,2.80
2018-01-13T11:20:07.015Z,2.80
2018-01-13T11:22:34.659Z,2.80
2018-01-13T11:25:03.060Z,2.70
2018-01-13T11:27:31.412Z,2.70
2018-01-13T11:29:59.087Z,2.70
2018-01-13T11:32:26.671Z,2.60
2018-01-13T11:34:55.125Z,2.60
2018-01-13T11:37:22.792Z,2.60
2018-01-13T11:39:50.446Z,2.70
2018-01-13T11:42:18.032Z,2.70
2018-01-13T11:44:46.379Z,2.70
2018-01-13T11:47:14.055Z,2.70
2018-01-13T11:49:41.632Z,2.70
2018-01-13T11:52:10.008Z,2.70
2018-01-13T11:54:37.591Z,2.70
2018-01-13T11:57:05.972Z,2.70
2018-01-13T11:59:33.610Z,2.70
2018-01-13T12:02:01.267Z,2.70
2018-01-13T12:04:28.846Z,2.70
2018-01-13T12:06:57.221Z,2.70
2018-01-13T12:09:25.687Z,2.70
2018-01-13T12:11:53.347Z,2.70
2018-01-13T12:14:21.011Z,2.60
2018-01-13T12:16:48.629Z,2.60
2018-01-13T12:19:16.240Z,2.60
2018-01-13T12:21:43.885Z,2.50
2018-01-13T12:24:11.467Z,2.50
2018-01-13T12:26:39.071Z,2.50
2018-01-13T12:29:06.688Z,2.50
2018-01-13T12:31:34.343Z,2.50
2018-01-13T12:34:02.827Z,2.50
2018-01-13T12:36:30.412Z,2.50
2018-01-13T12:38:58.873Z,2.40
2018-01-13T12:41:27.357Z,2.40
2018-01-13T12:43:55.823Z,2.40
2018-01-13T12:46:24.220Z,2.40
2018-01-13T12:48:51.847Z,2.40
2018-01-13T12:51:19.535Z,2.40
2018-01-13T12:53:47.931Z,2.50
2018-01-13T12:56:15.543Z,2.50
2018-01-13T12:58:43.176Z,2.50
2018-01-13T13:01:10.768Z,2.50
2018-01-13T13:03:38.384Z,2.50
2018-01-13T13:06:06.030Z,2.40
2018-01-13T13:08:33.696Z,2.40
2018-01-13T13:11:01.307Z,2.40
2018-01-13T13:13:29.020Z,2.50
2018-01-13T13:15:56.671Z,2.50
2018-01-13T13:18:24.339Z,2.60
2018-01-13T13:20:52.715Z,2.60
2018-01-13T13:23:20.388Z,2.60
2018-01-13T13:25:48.055Z,2.60
2018-01-13T13:28:15.648Z,2.60
2018-01-13T13:30:43.255Z,2.60
2018-01-13T13:33:10.937Z,2.70
2018-01-13T13:35:38.550Z,2.70
2018-01-13T13:38:06.173Z,2.60
2018-01-13T13:40:34.556Z,2.50
2018-01-13T13:43:02.920Z,2.50
2018-01-13T13:45:31.310Z,2.50
2018-01-13T13:47:58.923Z,2.50
2018-01-13T13:50:26.624Z,2.40
2018-01-13T13:52:54.216Z,2.40
2018-01-13T13:55:21.832Z,2.40
2018-01-13T13:57:49.424Z,2.40
2018-01-13T14:00:17.883Z,2.40
2018-01-13T14:02:45.468Z,2.30
2018-01-13T14:05:13.108Z,2.30
2018-01-13T14:07:41.806Z,2.30
2018-01-13T14:10:10.163Z,2.40
2018-01-13T14:12:38.575Z,2.40
2018-01-13T14:15:07.002Z,2.40
2018-01-13T14:17:34.695Z,2.40
2018-01-13T14:20:03.080Z,2.50
2018-01-13T14:22:30.748Z,2.50
2018-01-13T14:24:58.368Z,2.50
2018-01-13T14:27:26.071Z,2.50
2018-01-13T14:29:54.451Z,2.50
2018-01-13T14:32:22.064Z,2.50
2018-01-13T14:34:49.684Z,2.50
2018-01-13T14:37:18.059Z,2.50
2018-01-13T14:39:46.524Z,2.50
2018-01-13T14:42:14.201Z,2.40
2018-01-13T14:44:41.876Z,2.50
2018-01-13T14:47:09.624Z,2.50
2018-01-13T14:49:37.220Z,2.50
2018-01-13T14:52:04.947Z,2.50
2018-01-13T14:54:32.543Z,2.50
2018-01-13T14:57:00.275Z,2.50
2018-01-13T14:59:29.435Z,2.60
2018-01-13T15:01:57.024Z,2.60
2018-01-13T15:04:24.694Z,2.60
2018-01-13T15:06:52.287Z,2.60
2018-01-13T15:09:20.734Z,2.60
2018-01-13T15:11:49.115Z,2.60
2018-01-13T15:14:16.723Z,2.60
2018-01-13T15:16:44.336Z,2.50
2018-01-13T15:19:12.740Z,2.50
2018-01-13T15:21:41.208Z,2.50
2018-01-13T15:24:08.821Z,2.50
2018-01-13T15:26:36.435Z,2.50
2018-01-13T15:29:04.044Z,2.50
2018-01-13T15:31:31.655Z,2.50
2018-01-13T15:33:59.274Z,2.50
2018-01-13T15:36:27.665Z,2.50
2018-01-13T15:38:55.283Z,2.50
2018-01-13T15:41:23.634Z,2.60
2018-01-13T15:43:51.255Z,2.60
2018-01-13T15:46:18.954Z,2.60
2018-01-13T15:48:47.339Z,2.60
2018-01-13T15:51:14.999Z,2.60
2018-01-13T15:53:43.384Z,2.60
2018-01-13T15:56:11.047Z,2.60
2018-01-13T15:58:38.703Z,2.60
2018-01-13T16:01:06.376Z,2.60
2018-01-13T16:03:34.035Z,2.60
2018-01-13T16:06:01.650Z,2.60
2018-01-13T16:08:29.237Z,2.60
2018-01-13T16:10:56.924Z,2.70
2018-01-13T16:13:24.511Z,2.70
2018-01-13T16:15:52.123Z,2.70
2018-01-13T16:18:19.804Z,2.80
2018-01-13T16:20:47.477Z,2.80
2018-01-13T16:23:15.827Z,2.80
2018-01-13T16:25:43.516Z,2.80
2018-01-13T16:28:11.112Z,2.70
2018-01-13T16:30:38.719Z,2.70
2018-01-13T16:33:06.391Z,2.70
2018-01-13T16:35:33.995Z,2.60
2018-01-13T16:38:01.624Z,2.60
2018-01-13T16:40:29.279Z,2.70
2018-01-13T16:42:56.943Z,2.70
2018-01-13T16:45:24.603Z,2.70
2018-01-13T16:47:52.215Z,2.80
2018-01-13T16:50:19.827Z,2.70
2018-01-13T16:52:47.808Z,2.70
2018-01-13T16:55:15.378Z,2.70
2018-01-13T16:57:43.764Z,2.60
2018-01-13T17:00:12.119Z,2.70
2018-01-13T17:02:40.500Z,2.70
2018-01-13T17:05:09.600Z,2.70
2018-01-13T17:07:37.981Z,2.70
2018-01-13T17:10:05.579Z,2.70
2018-01-13T17:12:33.955Z,2.60
2018-01-13T17:15:01.571Z,2.60
2018-01-13T17:17:29.184Z,2.60
2018-01-13T17:19:56.767Z,2.60
2018-01-13T17:22:24.380Z,2.60
2018-01-13T17:24:52.727Z,2.60
2018-01-13T17:27:20.314Z,2.70
2018-01-13T17:29:47.968Z,2.70
2018-01-13T17:32:15.632Z,2.70
2018-01-13T17:34:43.246Z,2.80
2018-01-13T17:37:10.951Z,2.80
2018-01-13T17:39:38.616Z,2.70
2018-01-13T17:42:06.279Z,2.80
2018-01-13T17:44:33.886Z,2.80
2018-01-13T17:47:01.472Z,2.80
2018-01-13T17:49:29.169Z,2.80
2018-01-13T17:51:56.761Z,2.80
2018-01-13T17:54:24.487Z,2.80
2018-01-13T17:56:52.151Z,2.80
2018-01-13T17:59:19.815Z,2.80
2018-01-13T18:01:47.400Z,2.70
2018-01-13T18:04:15.780Z,2.70
2018-01-13T18:06:44.135Z,2.70
2018-01-13T18:09:11.718Z,2.70
2018-01-13T18:11:40.175Z,2.80
2018-01-13T18:14:09.284Z,2.80
2018-01-13T18:16:36.897Z,2.80
2018-01-13T18:19:04.614Z,2.80
2018-01-13T18:21:33.083Z,2.80
2018-01-13T18:24:00.743Z,2.80
2018-01-13T18:26:28.407Z,2.80
2018-01-13T18:28:55.999Z,2.70
2018-01-13T18:31:24.456Z,2.70
2018-01-13T18:33:52.111Z,2.70
2018-01-13T18:36:19.724Z,2.70
2018-01-13T18:38:47.339Z,2.80
2018-01-13T18:41:14.943Z,2.80
2018-01-13T18:43:42.530Z,2.80
2018-01-13T18:46:10.142Z,2.70
2018-01-13T18:48:38.601Z,2.70
2018-01-13T18:51:06.224Z,2.70
2018-01-13T18:53:33.815Z,2.70
2018-01-13T18:56:01.492Z,2.80
2018-01-13T18:58:29.079Z,2.70
2018-01-13T19:00:57.432Z,2.70
2018-01-13T19:03:25.087Z,2.70
2018-01-13T19:05:52.757Z,2.80
2018-01-13T19:08:20.415Z,2.70
2018-01-13T19:10:48.080Z,2.70
2018-01-13T19:13:15.738Z,2.70
2018-01-13T19:15:43.408Z,2.70
2018-01-13T19:18:11.027Z,2.60
2018-01-13T19:20:38.606Z,2.60
2018-01-13T19:23:06.222Z,2.70
2018-01-13T19:25:33.807Z,2.70
2018-01-13T19:28:01.416Z,2.70
2018-01-13T19:30:29.071Z,2.70
2018-01-13T19:32:56.735Z,2.80
2018-01-13T19:35:24.408Z,2.80
2018-01-13T19:37:51.999Z,2.80
2018-01-13T19:40:19.606Z,2.90
2018-01-13T19:42:47.228Z,2.80
2018-01-13T19:45:14.951Z,2.80
2018-01-13T19:47:43.312Z,2.80
2018-01-13T19:50:10.996Z,2.80
2018-01-13T19:52:38.656Z,2.80
2018-01-13T19:55:06.276Z,2.80
2018-01-13T19:57:33.872Z,2.90
2018-01-13T20:00:01.544Z,2.90
2018-01-13T20:02:29.208Z,2.90
2018-01-13T20:04:56.815Z,2.80
2018-01-13T20:07:24.412Z,2.80
2018-01-13T20:09:52.086Z,2.80
2018-01-13T20:12:19.675Z,2.70
2018-01-13T20:14:48.135Z,2.70
2018-01-13T20:17:15.794Z,2.70
2018-01-13T20:19:43.456Z,2.70
2018-01-13T20:22:11.047Z,2.70
2018-01-13T20:24:39.501Z,2.80
2018-01-13T20:27:07.168Z,2.80
2018-01-13T20:29:34.826Z,2.80
2018-01-13T20:32:02.492Z,2.80
2018-01-13T20:34:30.146Z,2.80
2018-01-13T20:36:57.759Z,2.80
2018-01-13T20:39:25.471Z,2.80
2018-01-13T20:41:53.866Z,2.70
2018-01-13T20:44:21.447Z,2.70
2018-01-13T20:46:49.899Z,2.70
2018-01-13T20:49:17.560Z,2.70
2018-01-13T20:51:46.048Z,2.70
2018-01-13T20:54:13.707Z,2.70
2018-01-13T20:56:41.368Z,2.70
2018-01-13T20:59:08.951Z,2.70
2018-01-13T21:01:37.391Z,2.50
2018-01-13T21:04:05.070Z,2.50
2018-01-13T21:06:32.735Z,2.50
2018-01-13T21:09:00.329Z,2.60
2018-01-13T21:11:27.939Z,2.60
2018-01-13T21:13:55.619Z,2.60
2018-01-13T21:16:24.744Z,2.80
2018-01-13T21:18:53.104Z,2.80
2018-01-13T21:21:20.752Z,2.80
2018-01-13T21:23:48.334Z,2.90
2018-01-13T21:26:16.721Z,2.90
2018-01-13T21:28:45.091Z,2.90
2018-01-13T21:31:12.743Z,2.90
2018-01-13T21:33:40.413Z,2.90
2018-01-13T21:36:08.076Z,2.80
2018-01-13T21:38:35.730Z,2.80
2018-01-13T21:41:03.396Z,2.80
2018-01-13T21:43:31.018Z,2.80
2018-01-13T21:45:58.615Z,2.90
2018-01-13T21:48:26.285Z,2.80
2018-01-13T21:50:54.763Z,2.80
2018-01-13T21:53:23.253Z,2.80
2018-01-13T21:55:50.841Z,2.80
2018-01-13T21:58:18.455Z,2.80
2018-01-13T22:00:46.044Z,2.70
2018-01-13T22:03:14.577Z,2.50
2018-01-13T22:05:42.275Z,2.60
2018-01-13T22:08:09.891Z,2.50
2018-01-13T22:10:37.513Z,2.50
2018-01-13T22:13:05.980Z,2.50
2018-01-13T22:15:33.572Z,2.60
2018-01-13T22:18:01.208Z,2.60
2018-01-13T22:20:28.871Z,2.60
2018-01-13T22:22:56.459Z,2.60
2018-01-13T22:25:24.856Z,2.60
2018-01-13T22:27:52.475Z,2.60
2018-01-13T22:30:20.140Z,2.60
2018-01-13T22:32:47.795Z,2.60
2018-01-13T22:35:15.464Z,2.70
2018-01-13T22:37:43.128Z,2.70
2018-01-13T22:40:10.783Z,2.70
2018-01-13T22:42:38.369Z,2.70
2018-01-13T22:45:06.740Z,2.70
2018-01-13T22:47:35.212Z,2.80
2018-01-13T22:50:02.873Z,2.70
2018-01-13T22:52:30.468Z,2.80
2018-01-13T22:54:58.055Z,2.70
2018-01-13T22:57:25.671Z,2.70
2018-01-13T22:59:54.019Z,2.70
2018-01-13T23:02:21.699Z,2.70
2018-01-13T23:04:50.899Z,2.70
2018-01-13T23:07:18.513Z,2.70
2018-01-13T23:09:46.119Z,2.80
2018-01-13T23:12:13.784Z,2.80
2018-01-13T23:14:41.492Z,2.80
2018-01-13T23:17:09.108Z,2.80
2018-01-13T23:19:36.767Z,2.90
2018-01-13T23:22:04.437Z,2.90
2018-01-13T23:24:32.032Z,2.90
2018-01-13T23:26:59.655Z,3.00
2018-01-13T23:29:27.278Z,3.00
2018-01-13T23:31:55.002Z,3.00
2018-01-13T23:34:23.359Z,2.90
2018-01-13T23:36:51.021Z,2.90
2018-01-13T23:39:18.692Z,2.80
2018-01-13T23:41:46.351Z,2.80
2018-01-13T23:44:13.972Z,2.80
2018-01-13T23:46:41.555Z,2.80
2018-01-13T23:49:09.235Z,2.90
2018-01-13T23:51:37.632Z,2.90
2018-01-13T23:54:06.019Z,2.90
2018-01-13T23:56:34.377Z,2.90
2018-01-13T23:59:02.037Z,2.90
